Time;durP1;ratioP1;P1;durP2;ratioP2;P2;SDS_P1;SDS_P2;PMS_P1;PMS_P2;Temp;Humidity;BMP_temperature;BMP_pressure;BME280_temperature;BME280_humidity;BME280_pressure;Samples;Min_cycle;Max_cycle;Signal;HPM_P1;HPM_P2
2021/05/19 00:01:45;;;;;;;12.00;8.18;;;9.20;99.90;;;;;;5054019;28;20029;-75
2021/05/19 00:04:12;;;;;;;10.07;7.82;;;9.30;99.90;;;;;;5053618;28;20041;-75
2021/05/19 00:06:39;;;;;;;11.15;7.90;;;9.40;99.90;;;;;;5064549;28;20045;-75
2021/05/19 00:09:08;;;;;;;13.13;8.85;;;9.40;99.90;;;;;;5064567;28;20036;-75
2021/05/19 00:11:36;;;;;;;11.40;8.48;;;9.50;99.90;;;;;;5035473;28;20493;-74
2021/05/19 00:14:04;;;;;;;11.38;8.00;;;9.40;99.90;;;;;;5045110;28;20063;-75
2021/05/19 00:16:30;;;;;;;10.35;8.10;;;9.40;99.90;;;;;;5042645;28;20045;-74
2021/05/19 00:18:56;;;;;;;12.32;9.60;;;9.40;99.90;;;;;;5052376;28;20485;-74
2021/05/19 00:21:24;;;;;;;13.13;9.07;;;9.50;99.90;;;;;;5054008;28;20033;-75
2021/05/19 00:23:50;;;;;;;10.45;8.85;;;9.50;99.90;;;;;;5053576;28;20382;-75
2021/05/19 00:26:17;;;;;;;12.57;8.95;;;9.40;99.90;;;;;;5063810;28;20040;-74
2021/05/19 00:28:45;;;;;;;15.38;9.13;;;9.50;99.90;;;;;;5062656;28;20032;-75
2021/05/19 00:31:14;;;;;;;13.95;9.20;;;9.40;99.90;;;;;;5054074;28;20044;-75
2021/05/19 00:33:40;;;;;;;12.73;9.23;;;9.40;99.90;;;;;;5054848;28;20048;-74
2021/05/19 00:36:06;;;;;;;14.60;9.05;;;9.40;99.90;;;;;;5061475;28;20497;-74
2021/05/19 00:38:32;;;;;;;16.15;9.27;;;9.40;99.90;;;;;;5053117;28;20045;-74
2021/05/19 00:40:59;;;;;;;13.15;9.55;;;9.40;99.90;;;;;;5063291;28;20025;-74
2021/05/19 00:43:25;;;;;;;14.48;9.70;;;9.30;99.90;;;;;;5052676;28;20051;-74
2021/05/19 00:45:52;;;;;;;13.15;9.57;;;9.30;99.90;;;;;;5052283;28;20045;-74
2021/05/19 00:48:18;;;;;;;15.55;10.10;;;9.20;99.90;;;;;;5035406;28;20051;-74
2021/05/19 00:50:44;;;;;;;11.40;8.93;;;9.20;99.90;;;;;;5034825;28;20044;-74
2021/05/19 00:53:11;;;;;;;13.80;9.05;;;9.10;99.90;;;;;;5035035;28;20049;-74
2021/05/19 00:55:37;;;;;;;15.07;9.25;;;9.10;99.90;;;;;;5053524;28;20036;-74
2021/05/19 00:58:04;;;;;;;13.93;9.15;;;9.00;99.90;;;;;;5052911;28;20033;-74
2021/05/19 01:00:36;;;;;;;12.52;10.20;;;9.00;99.90;;;;;;5052822;28;20045;-74
2021/05/19 01:03:13;;;;;;;15.30;11.20;;;8.90;99.90;;;;;;5035050;28;20513;-75
2021/05/19 01:05:52;;;;;;;17.08;9.93;;;8.90;99.90;;;;;;5052816;28;20044;-74
2021/05/19 01:11:13;;;;;;;15.45;10.35;;;9.00;99.90;;;;;;5051975;28;20048;-74
2021/05/19 01:13:42;;;;;;;17.58;10.30;;;8.80;99.90;;;;;;5035667;28;20033;-74
2021/05/19 01:16:09;;;;;;;16.00;11.13;;;8.80;99.90;;;;;;5052350;28;20041;-74
2021/05/19 01:18:36;;;;;;;14.55;10.57;;;8.80;99.90;;;;;;5062787;28;20037;-74
2021/05/19 01:21:03;;;;;;;15.70;11.23;;;8.80;99.90;;;;;;5061175;28;20075;-74
2021/05/19 01:23:31;;;;;;;15.15;10.73;;;8.90;99.90;;;;;;5061261;28;20123;-74
2021/05/19 01:26:01;;;;;;;13.32;11.07;;;8.90;99.90;;;;;;5069564;28;20047;-74
2021/05/19 01:28:28;;;;;;;16.83;10.57;;;8.80;99.90;;;;;;5034749;28;20044;-74
2021/05/19 01:30:55;;;;;;;15.02;10.60;;;8.80;99.90;;;;;;5068764;28;20077;-74
2021/05/19 01:33:21;;;;;;;14.18;10.32;;;8.80;99.90;;;;;;5059257;28;20029;-74
2021/05/19 01:35:47;;;;;;;16.92;11.68;;;8.80;99.90;;;;;;5041744;28;20403;-74
2021/05/19 01:38:15;;;;;;;15.45;11.32;;;8.80;99.90;;;;;;5034497;28;20044;-74
2021/05/19 01:40:41;;;;;;;16.80;11.57;;;8.80;99.90;;;;;;5059375;28;20045;-75
2021/05/19 01:43:08;;;;;;;16.58;12.20;;;8.80;99.90;;;;;;5052184;28;20367;-74
2021/05/19 01:46:01;;;;;;;16.75;11.43;;;8.70;99.90;;;;;;5050144;28;20636;-75
2021/05/19 01:48:30;;;;;;;18.38;12.23;;;8.80;99.90;;;;;;5051773;28;20045;-74
2021/05/19 01:50:57;;;;;;;18.38;11.93;;;8.80;99.90;;;;;;5051886;28;20025;-75
2021/05/19 01:53:25;;;;;;;16.05;11.98;;;8.80;99.90;;;;;;5060241;28;20024;-75
2021/05/19 01:55:53;;;;;;;17.25;11.98;;;8.80;99.90;;;;;;5062794;28;20044;-75
2021/05/19 01:58:19;;;;;;;20.52;13.07;;;8.70;99.90;;;;;;5051856;28;20041;-75
2021/05/19 02:00:46;;;;;;;19.50;12.13;;;8.60;99.90;;;;;;5050957;28;20059;-75
2021/05/19 02:03:19;;;;;;;17.80;12.35;;;8.50;99.90;;;;;;5034524;28;20052;-75
2021/05/19 02:06:07;;;;;;;17.98;12.13;;;8.40;99.90;;;;;;5034444;28;20397;-75
2021/05/19 02:08:35;;;;;;;17.83;12.75;;;8.40;99.90;;;;;;5051831;28;20486;-75
2021/05/19 02:11:03;;;;;;;18.55;12.23;;;8.30;99.90;;;;;;5068867;28;20486;-75
2021/05/19 02:13:35;;;;;;;17.88;13.15;;;8.20;99.90;;;;;;5037488;28;20589;-75
2021/05/19 02:16:03;;;;;;;16.83;11.77;;;8.10;99.90;;;;;;5033313;28;20052;-75
2021/05/19 02:18:29;;;;;;;18.95;11.00;;;8.20;99.90;;;;;;5050129;28;20040;-75
2021/05/19 02:20:55;;;;;;;17.92;11.65;;;8.10;99.90;;;;;;5058914;28;20044;-75
2021/05/19 02:23:22;;;;;;;21.10;12.95;;;8.10;99.90;;;;;;5044992;28;20505;-75
2021/05/19 02:25:49;;;;;;;20.20;12.52;;;8.10;99.90;;;;;;5039333;28;20516;-75
2021/05/19 02:28:15;;;;;;;22.27;13.32;;;8.00;99.90;;;;;;5060862;28;20040;-75
2021/05/19 02:30:47;;;;;;;19.13;13.27;;;7.90;99.90;;;;;;5032788;28;20052;-74
2021/05/19 02:33:20;;;;;;;22.33;14.13;;;7.90;99.90;;;;;;5033825;28;20076;-74
2021/05/19 02:35:47;;;;;;;20.80;13.20;;;7.90;99.90;;;;;;5033628;28;20052;-74
2021/05/19 02:38:13;;;;;;;24.27;14.80;;;7.80;99.90;;;;;;5051676;28;20474;-75
2021/05/19 02:40:40;;;;;;;23.48;13.90;;;7.80;99.90;;;;;;5051827;28;20033;-74
2021/05/19 02:43:07;;;;;;;20.42;12.88;;;7.70;99.90;;;;;;5042038;28;20063;-74
2021/05/19 02:45:38;;;;;;;;;;;7.60;99.90;;;;;;5018034;28;20052;-74
2021/05/19 02:48:05;;;;;;;22.10;12.77;;;7.40;99.90;;;;;;5033168;28;19916;-74
2021/05/19 02:50:31;;;;;;;23.30;13.40;;;7.50;99.90;;;;;;5055945;28;20044;-74
2021/05/19 02:52:58;;;;;;;22.95;13.75;;;7.40;99.90;;;;;;5058878;28;20029;-75
2021/05/19 02:55:24;;;;;;;28.95;15.10;;;7.40;99.90;;;;;;5070081;28;20047;-74
2021/05/19 02:57:50;;;;;;;27.65;15.63;;;7.30;99.90;;;;;;5050376;28;20055;-75
2021/05/19 03:00:17;;;;;;;25.65;14.40;;;7.20;99.90;;;;;;5051709;28;20029;-74
2021/05/19 03:02:44;;;;;;;25.88;13.90;;;7.20;99.90;;;;;;5042189;28;20052;-75
2021/05/19 03:05:10;;;;;;;25.52;13.88;;;7.20;99.90;;;;;;5065290;28;20025;-75
2021/05/19 03:07:37;;;;;;;26.88;14.43;;;7.20;99.90;;;;;;5051374;28;20036;-75
2021/05/19 03:10:04;;;;;;;27.98;14.85;;;7.20;99.90;;;;;;5050010;28;20579;-75
2021/05/19 03:12:30;;;;;;;24.67;14.65;;;7.10;99.90;;;;;;5051532;28;20033;-75
2021/05/19 03:14:56;;;;;;;25.35;14.93;;;7.20;99.90;;;;;;5050772;28;20029;-75
2021/05/19 03:17:23;;;;;;;26.98;15.40;;;7.10;99.90;;;;;;5050861;28;20037;-75
2021/05/19 03:19:49;;;;;;;30.58;17.00;;;7.00;99.90;;;;;;5049920;28;20049;-75
2021/05/19 03:22:15;;;;;;;24.23;14.43;;;6.90;99.90;;;;;;5055449;28;20051;-75
2021/05/19 03:24:42;;;;;;;23.10;13.65;;;6.70;99.90;;;;;;5056651;28;20048;-75
2021/05/19 03:27:09;;;;;;;22.83;13.32;;;6.60;99.90;;;;;;5050938;28;20029;-75
2021/05/19 03:29:35;;;;;;;19.92;12.43;;;6.60;99.90;;;;;;5051474;28;20037;-75
2021/05/19 03:32:02;;;;;;;17.70;11.88;;;6.50;99.90;;;;;;5050515;28;20056;-75
2021/05/19 03:34:28;;;;;;;20.38;12.20;;;6.40;99.90;;;;;;5052860;28;20033;-75
2021/05/19 03:36:55;;;;;;;21.63;12.25;;;6.40;99.90;;;;;;5036839;28;20063;-75
2021/05/19 03:39:21;;;;;;;21.30;14.00;;;6.40;99.90;;;;;;5058254;28;20040;-75
2021/05/19 03:41:47;;;;;;;22.95;12.20;;;6.40;99.90;;;;;;5043519;28;20458;-76
2021/05/19 03:44:13;;;;;;;25.15;13.68;;;6.30;99.90;;;;;;5054884;28;20047;-75
2021/05/19 03:46:39;;;;;;;17.50;11.63;;;6.40;99.90;;;;;;5053939;28;20402;-75
2021/05/19 03:49:06;;;;;;;18.67;11.07;;;6.40;99.90;;;;;;5053364;28;20459;-74
2021/05/19 03:51:34;;;;;;;24.55;13.35;;;6.30;99.90;;;;;;5054849;28;20029;-74
2021/05/19 03:54:00;;;;;;;27.35;15.50;;;6.40;99.90;;;;;;5054298;28;20028;-75
2021/05/19 03:56:27;;;;;;;25.70;15.90;;;6.50;99.90;;;;;;5054687;28;20390;-75
2021/05/19 03:58:53;;;;;;;28.30;15.48;;;6.50;99.90;;;;;;5053471;28;20056;-76
2021/05/19 04:01:20;;;;;;;32.35;17.88;;;6.60;99.90;;;;;;5070373;28;20121;-76
2021/05/19 04:03:48;;;;;;;31.10;17.25;;;6.60;99.90;;;;;;5041187;28;20037;-76
2021/05/19 04:06:14;;;;;;;32.70;17.23;;;6.60;99.90;;;;;;5061283;28;20040;-75
2021/05/19 04:08:42;;;;;;;33.55;19.02;;;6.70;99.90;;;;;;5055380;28;20048;-76
2021/05/19 04:11:10;;;;;;;30.75;17.80;;;6.70;99.90;;;;;;5054031;28;20040;-75
2021/05/19 04:13:37;;;;;;;28.58;16.92;;;6.80;99.90;;;;;;5054484;28;20040;-75
2021/05/19 04:16:04;;;;;;;24.60;16.00;;;6.80;99.90;;;;;;5053254;28;20129;-76
2021/05/19 04:18:30;;;;;;;26.98;16.15;;;6.80;99.90;;;;;;5057428;28;20035;-75
2021/05/19 04:20:57;;;;;;;30.80;16.05;;;6.90;99.90;;;;;;5067409;28;20033;-75
2021/05/19 04:23:25;;;;;;;24.95;14.63;;;7.10;99.90;;;;;;5054580;28;20040;-83
2021/05/19 04:25:54;;;;;;;22.83;14.65;;;7.10;99.90;;;;;;5058504;28;20028;-83
2021/05/19 04:28:21;;;;;;;19.67;12.40;;;7.20;99.90;;;;;;5061625;28;20045;-83
2021/05/19 04:30:48;;;;;;;14.80;10.63;;;7.40;99.90;;;;;;5053554;28;20024;-83
2021/05/19 04:33:17;;;;;;;14.85;10.60;;;7.90;99.90;;;;;;5051442;28;20029;-83
2021/05/19 04:35:44;;;;;;;11.10;8.80;;;8.40;99.90;;;;;;5052876;28;20051;-79
2021/05/19 04:38:10;;;;;;;10.82;8.73;;;8.90;99.90;;;;;;5055048;28;20040;-80
2021/05/19 04:40:37;;;;;;;8.88;6.75;;;9.10;99.90;;;;;;5053840;28;20029;-80
2021/05/19 04:43:06;;;;;;;8.50;6.47;;;8.80;99.90;;;;;;5053301;28;20390;-81
2021/05/19 04:45:33;;;;;;;7.95;6.95;;;8.70;99.90;;;;;;5053666;28;20037;-81
2021/05/19 04:47:59;;;;;;;9.73;7.50;;;8.80;99.90;;;;;;5059324;28;20041;-81
2021/05/19 04:50:26;;;;;;;8.65;7.53;;;9.30;99.90;;;;;;5052306;28;20413;-81
2021/05/19 04:52:52;;;;;;;9.27;6.70;;;10.20;99.90;;;;;;5063250;28;20021;-81
2021/05/19 04:55:18;;;;;;;6.10;5.28;;;11.20;99.90;;;;;;5053619;28;20390;-81
2021/05/19 04:57:45;;;;;;;5.90;5.13;;;11.80;99.90;;;;;;5069830;28;20040;-78
2021/05/19 05:00:12;;;;;;;4.95;4.45;;;12.00;99.90;;;;;;5053314;28;20048;-80
2021/05/19 05:02:39;;;;;;;5.65;4.97;;;11.10;99.90;;;;;;5053581;28;20047;-81
2021/05/19 05:05:10;;;;;;;5.22;4.25;;;11.10;99.90;;;;;;5036120;28;20032;-81
2021/05/19 05:07:36;;;;;;;6.28;4.35;;;10.50;99.90;;;;;;5066340;28;20045;-81
2021/05/19 05:10:04;;;;;;;5.78;5.13;;;10.00;99.90;;;;;;5059150;28;20033;-81
2021/05/19 05:12:30;;;;;;;9.13;5.75;;;10.00;99.90;;;;;;5066337;28;20033;-82
2021/05/19 05:14:57;;;;;;;6.43;4.85;;;10.10;99.90;;;;;;5034642;28;20501;-82
2021/05/19 05:17:23;;;;;;;6.05;5.40;;;10.10;99.90;;;;;;5053153;28;20036;-82
2021/05/19 05:19:49;;;;;;;7.13;5.53;;;10.10;99.90;;;;;;5052837;28;20025;-81
2021/05/19 05:22:15;;;;;;;7.53;5.72;;;10.10;99.90;;;;;;5053115;28;20028;-82
2021/05/19 05:24:41;;;;;;;9.10;7.00;;;10.30;99.90;;;;;;5052862;28;20037;-82
2021/05/19 05:27:08;;;;;;;10.40;6.85;;;10.10;99.90;;;;;;5052527;28;20132;-80
2021/05/19 05:29:34;;;;;;;8.05;6.32;;;10.10;99.90;;;;;;5053160;28;20465;-81
2021/05/19 05:32:00;;;;;;;8.38;6.35;;;10.20;99.90;;;;;;5052285;28;20382;-81
2021/05/19 05:34:27;;;;;;;8.18;6.15;;;10.20;99.90;;;;;;5053725;28;20041;-80
2021/05/19 05:36:54;;;;;;;11.35;7.07;;;10.20;99.90;;;;;;5052411;28;20033;-80
2021/05/19 05:39:20;;;;;;;8.50;6.15;;;10.20;99.90;;;;;;5035129;28;20041;-80
2021/05/19 05:41:46;;;;;;;7.72;6.88;;;10.00;99.90;;;;;;5052421;28;20044;-79
2021/05/19 05:44:13;;;;;;;9.13;6.65;;;10.10;99.90;;;;;;5052637;28;20055;-81
2021/05/19 05:46:39;;;;;;;8.88;6.43;;;10.30;99.90;;;;;;5034635;28;20043;-81
2021/05/19 05:49:07;;;;;;;9.15;6.05;;;10.30;99.90;;;;;;5051931;28;20036;-80
2021/05/19 05:51:34;;;;;;;9.30;7.00;;;10.10;99.90;;;;;;5052649;28;20037;-83
2021/05/19 05:54:00;;;;;;;10.50;7.00;;;9.90;99.90;;;;;;5034489;28;20040;-81
2021/05/19 05:56:27;;;;;;;8.65;7.10;;;9.80;99.90;;;;;;5061100;28;20401;-82
2021/05/19 05:58:54;;;;;;;10.35;7.25;;;9.70;99.90;;;;;;5063915;28;20045;-80
2021/05/19 06:01:20;;;;;;;11.35;7.80;;;9.80;99.90;;;;;;5052249;28;20032;-81
2021/05/19 06:03:46;;;;;;;8.23;6.80;;;9.90;99.90;;;;;;5054541;28;20033;-80
2021/05/19 06:06:12;;;;;;;11.25;7.72;;;9.80;99.90;;;;;;5057609;28;20033;-82
2021/05/19 06:08:39;;;;;;;11.52;8.45;;;9.80;99.90;;;;;;5065661;28;20029;-81
2021/05/19 06:11:07;;;;;;;11.43;8.57;;;9.90;99.90;;;;;;5064367;28;20051;-81
2021/05/19 06:13:34;;;;;;;11.90;8.45;;;10.00;99.90;;;;;;5062213;28;20036;-81
2021/05/19 06:16:01;;;;;;;9.23;7.68;;;10.20;99.90;;;;;;5051748;28;20036;-82
2021/05/19 06:18:27;;;;;;;12.15;7.82;;;10.70;99.90;;;;;;5052040;28;20049;-81
2021/05/19 06:20:54;;;;;;;10.70;7.13;;;11.00;99.90;;;;;;5060916;28;20028;-81
2021/05/19 06:23:20;;;;;;;8.05;6.40;;;11.20;99.90;;;;;;5052056;28;20489;-82
2021/05/19 06:25:46;;;;;;;6.80;6.05;;;11.30;99.90;;;;;;5052093;28;20041;-85
2021/05/19 06:28:13;;;;;;;6.95;6.03;;;11.40;99.90;;;;;;5058285;28;20028;-84
2021/05/19 06:30:40;;;;;;;6.97;4.88;;;11.80;99.90;;;;;;5073128;28;20033;-82
2021/05/19 06:33:06;;;;;;;7.97;5.20;;;11.90;99.90;;;;;;5075098;28;20028;-85
2021/05/19 06:35:32;;;;;;;6.47;5.25;;;12.10;99.90;;;;;;5085008;28;20021;-81
2021/05/19 06:37:58;;;;;;;5.13;4.25;;;12.20;99.90;;;;;;5072832;28;20037;-82
2021/05/19 06:40:25;;;;;;;7.47;5.35;;;11.90;99.90;;;;;;5063796;28;20487;-84
2021/05/19 06:42:51;;;;;;;6.90;4.90;;;12.00;99.90;;;;;;5059989;28;20032;-84
2021/05/19 06:45:17;;;;;;;7.38;6.13;;;12.10;99.90;;;;;;5053440;28;20029;-83
2021/05/19 06:47:44;;;;;;;7.22;4.93;;;11.90;99.90;;;;;;5045911;28;20033;-84
2021/05/19 06:50:10;;;;;;;5.45;4.22;;;12.50;99.90;;;;;;5050784;28;20044;-84
2021/05/19 06:52:37;;;;;;;8.23;4.30;;;13.80;99.90;;;;;;5018998;28;20053;-83
2021/05/19 06:55:06;;;;;;;5.80;3.95;;;15.30;95.10;;;;;;5055036;28;20029;-84
2021/05/19 06:57:35;;;;;;;7.15;4.57;;;15.80;91.60;;;;;;5066978;28;20041;-84
2021/05/19 07:00:05;;;;;;;7.05;4.05;;;16.30;89.10;;;;;;5054822;28;20044;-84
2021/05/19 07:02:31;;;;;;;6.90;5.18;;;16.30;84.60;;;;;;5061382;28;20041;-82
2021/05/19 07:04:57;;;;;;;5.40;4.78;;;15.10;88.40;;;;;;5051512;28;20033;-84
2021/05/19 07:07:24;;;;;;;6.53;4.28;;;14.50;90.90;;;;;;5052157;28;20032;-85
2021/05/19 07:09:50;;;;;;;7.18;4.88;;;14.70;88.40;;;;;;5054841;28;20033;-85
2021/05/19 07:12:16;;;;;;;7.45;4.40;;;15.40;87.00;;;;;;5054927;28;20056;-83
2021/05/19 07:14:49;;;;;;;6.15;4.60;;;17.00;82.00;;;;;;5058898;28;20035;-86
2021/05/19 07:17:16;;;;;;;4.10;3.65;;;17.90;75.90;;;;;;5061266;28;20060;-84
2021/05/19 07:19:42;;;;;;;6.55;4.00;;;18.00;73.00;;;;;;5058070;28;20044;-84
2021/05/19 07:22:09;;;;;;;11.25;6.22;;;17.40;73.30;;;;;;5058526;28;20135;-84
2021/05/19 07:24:35;;;;;;;7.80;6.03;;;16.00;76.00;;;;;;5074495;28;20466;-84
2021/05/19 07:27:02;;;;;;;7.47;6.05;;;15.30;79.60;;;;;;5063665;28;20035;-81
2021/05/19 07:29:28;;;;;;;5.97;5.43;;;15.20;81.60;;;;;;5073652;28;20048;-83
2021/05/19 07:31:54;;;;;;;8.05;5.70;;;15.10;83.20;;;;;;5054878;28;20056;-83
2021/05/19 07:34:21;;;;;;;7.50;6.07;;;15.40;81.80;;;;;;5061966;28;20036;-87
2021/05/19 07:36:47;;;;;;;7.55;5.78;;;15.60;77.80;;;;;;5065647;28;20041;-83
2021/05/19 07:39:13;;;;;;;10.50;7.22;;;15.90;79.70;;;;;;5055033;28;20382;-83
2021/05/19 07:41:40;;;;;;;6.60;5.80;;;15.90;79.80;;;;;;5055360;28;20033;-83
2021/05/19 07:44:07;;;;;;;6.20;4.82;;;16.20;78.10;;;;;;5053905;28;20056;-83
2021/05/19 07:46:34;;;;;;;7.88;5.30;;;17.00;77.30;;;;;;5055475;28;20033;-83
2021/05/19 07:49:01;;;;;;;10.98;5.53;;;16.60;74.90;;;;;;5054845;28;20462;-83
2021/05/19 07:51:28;;;;;;;7.40;6.32;;;16.00;75.00;;;;;;5055075;28;20032;-82
2021/05/19 07:53:55;;;;;;;9.77;6.32;;;15.60;78.30;;;;;;5054614;28;20032;-81
2021/05/19 07:56:32;;;;;;;9.60;7.03;;;15.20;81.10;;;;;;5055097;28;20043;-79
2021/05/19 07:59:06;;;;;;;8.07;5.55;;;15.00;82.40;;;;;;5053909;28;20052;-81
2021/05/19 08:01:55;;;;;;;5.90;5.13;;;14.50;83.80;;;;;;5054499;28;20036;-81
2021/05/19 08:04:19;;;;;;;6.53;5.03;;;14.60;82.80;;;;;;5054843;28;20033;-81
2021/05/19 08:06:45;;;;;;;8.23;5.55;;;14.80;82.70;;;;;;5055093;28;20040;-85
2021/05/19 08:09:11;;;;;;;7.72;5.78;;;14.40;82.50;;;;;;5053876;28;20040;-82
2021/05/19 08:11:38;;;;;;;8.00;5.53;;;13.90;83.60;;;;;;5067332;28;20048;-80
2021/05/19 08:14:05;;;;;;;8.65;5.50;;;13.70;86.10;;;;;;5053404;28;20049;-81
2021/05/19 08:16:31;;;;;;;7.07;6.38;;;14.10;83.60;;;;;;5061884;28;20039;-81
2021/05/19 08:18:57;;;;;;;7.97;6.25;;;13.80;85.40;;;;;;5057662;28;20056;-83
2021/05/19 08:21:24;;;;;;;7.60;6.10;;;13.90;85.30;;;;;;5053995;28;20091;-81
2021/05/19 08:23:50;;;;;;;6.95;5.50;;;13.60;86.40;;;;;;5035612;28;20478;-80
2021/05/19 08:26:16;;;;;;;8.45;5.95;;;13.50;86.20;;;;;;5054564;28;20036;-81
2021/05/19 08:28:43;;;;;;;7.85;4.80;;;13.30;87.30;;;;;;5054018;28;20046;-81
2021/05/19 08:31:10;;;;;;;8.40;5.18;;;14.00;86.80;;;;;;5052859;28;20045;-83
2021/05/19 08:33:36;;;;;;;7.43;4.57;;;14.10;85.10;;;;;;5056473;28;20042;-81
2021/05/19 08:36:03;;;;;;;5.95;4.55;;;14.10;85.80;;;;;;5059572;28;20044;-81
2021/05/19 08:38:29;;;;;;;7.93;4.80;;;14.40;85.10;;;;;;5063411;28;20052;-81
2021/05/19 08:41:01;;;;;;;6.72;4.93;;;14.00;83.40;;;;;;5058450;28;20100;-81
2021/05/19 08:43:27;;;;;;;8.05;4.68;;;14.10;85.10;;;;;;5054076;28;20039;-82
2021/05/19 08:45:54;;;;;;;5.72;4.28;;;14.80;85.10;;;;;;5053610;28;20390;-81
2021/05/19 08:48:21;;;;;;;6.10;3.78;;;16.40;79.30;;;;;;5053902;28;20041;-83
2021/05/19 08:50:47;;;;;;;6.18;4.22;;;16.30;75.20;;;;;;5058213;28;20033;-81
2021/05/19 08:53:14;;;;;;;6.40;4.55;;;16.10;77.30;;;;;;5070656;28;20037;-83
2021/05/19 08:55:40;;;;;;;5.47;3.92;;;16.20;78.40;;;;;;5053557;28;20056;-84
2021/05/19 08:58:06;;;;;;;8.50;4.47;;;17.60;72.30;;;;;;5057740;28;20033;-83
2021/05/19 09:00:34;;;;;;;8.10;4.35;;;16.90;70.80;;;;;;5058352;28;20048;-85
2021/05/19 09:03:18;;;;;;;6.38;5.00;;;16.20;74.00;;;;;;5053420;28;20033;-85
2021/05/19 09:05:48;;;;;;;7.32;4.95;;;15.30;75.00;;;;;;5067256;28;20032;-83
2021/05/19 09:08:17;;;;;;;8.23;4.27;;;14.90;78.90;;;;;;5053381;28;20036;-85
2021/05/19 09:11:04;;;;;;;5.20;3.97;;;14.60;77.20;;;;;;5052498;28;20041;-83
2021/05/19 09:13:35;;;;;;;5.88;4.40;;;15.10;78.80;;;;;;5060037;28;20071;-84
2021/05/19 09:16:03;;;;;;;8.65;4.68;;;15.20;78.10;;;;;;5053530;28;20462;-83
2021/05/19 09:18:50;;;;;;;8.23;4.97;;;15.00;78.40;;;;;;5053407;28;20033;-84
2021/05/19 09:21:38;;;;;;;7.43;5.63;;;15.20;78.20;;;;;;5053583;28;20029;-85
2021/05/19 09:24:09;;;;;;;9.65;5.88;;;15.90;76.50;;;;;;5053260;28;20033;-85
2021/05/19 09:26:54;;;;;;;;;;;16.50;73.40;;;;;;5058395;28;20032;-85
2021/05/19 09:29:33;;;;;;;6.43;4.82;;;17.00;74.40;;;;;;5054815;28;19916;-85
2021/05/19 09:32:01;;;;;;;7.75;5.18;;;17.10;71.90;;;;;;5051638;28;20060;-85
2021/05/19 09:34:36;;;;;;;7.35;5.05;;;17.20;68.00;;;;;;5053844;28;20501;-86
2021/05/19 09:37:11;;;;;;;7.32;4.82;;;19.00;67.20;;;;;;5064922;28;20073;-88
2021/05/19 09:39:54;;;;;;;7.13;4.03;;;17.80;63.80;;;;;;5053141;28;20039;-85
2021/05/19 09:42:37;;;;;;;5.40;3.60;;;16.50;65.30;;;;;;5057807;28;20032;-85
2021/05/19 09:45:32;;;;;;;4.97;3.28;;;15.40;66.90;;;;;;5060279;28;20053;-86
2021/05/19 09:48:00;;;;;;;5.30;3.78;;;14.80;67.60;;;;;;5052572;28;20029;-84
2021/05/19 09:50:47;;;;;;;10.60;5.40;;;14.50;70.30;;;;;;5053104;28;20040;-85
2021/05/19 09:53:15;;;;;;;7.03;4.18;;;14.40;71.70;;;;;;5044033;28;20040;-87
2021/05/19 09:56:02;;;;;;;5.82;3.20;;;14.30;73.00;;;;;;5053216;28;20355;-89
2021/05/19 09:58:38;;;;;;;6.63;2.65;;;14.90;70.40;;;;;;5052981;28;20033;-86
2021/05/19 10:01:05;;;;;;;6.20;2.72;;;14.70;68.20;;;;;;5052777;28;20033;-87
2021/05/19 10:03:36;;;;;;;4.72;2.90;;;15.10;67.70;;;;;;5056028;28;20029;-88
2021/05/19 10:08:36;;;;;;;4.68;2.00;;;16.10;66.40;;;;;;5054388;28;20044;-85
2021/05/19 10:11:04;;;;;;;5.95;2.08;;;16.10;61.70;;;;;;5073123;28;20044;-85
2021/05/19 10:13:33;;;;;;;4.38;1.52;;;15.20;62.60;;;;;;5055527;28;20381;-90
2021/05/19 10:16:03;;;;;;;4.60;1.30;;;15.40;64.40;;;;;;5052017;28;20052;-90
2021/05/19 10:18:31;;;;;;;3.75;1.52;;;16.60;59.80;;;;;;5053289;28;20048;-86
2021/05/19 10:20:59;;;;;;;4.85;1.90;;;17.50;56.20;;;;;;5052168;28;20041;-86
2021/05/19 10:23:38;;;;;;;5.85;1.67;;;17.30;55.80;;;;;;5036551;28;20485;-89
2021/05/19 10:26:09;;;;;;;3.45;1.65;;;16.70;58.90;;;;;;5073978;28;20049;-86
2021/05/19 10:28:47;;;;;;;4.75;1.55;;;16.70;59.80;;;;;;5058377;28;20023;-89
2021/05/19 10:31:41;;;;;;;3.13;1.55;;;16.60;58.80;;;;;;5065142;28;20049;-89
2021/05/19 10:34:07;;;;;;;4.20;1.35;;;16.60;58.50;;;;;;5068449;28;20047;-88
2021/05/19 10:36:38;;;;;;;5.00;1.20;;;16.80;58.30;;;;;;5063221;28;20021;-84
2021/05/19 10:39:08;;;;;;;3.85;1.75;;;17.20;56.80;;;;;;5063237;28;20041;-88
2021/05/19 10:41:46;;;;;;;5.22;1.58;;;17.10;56.40;;;;;;5065312;28;20029;-86
2021/05/19 10:44:16;;;;;;;3.83;1.48;;;16.90;57.90;;;;;;5075265;28;20220;-84
2021/05/19 10:49:43;;;;;;;3.65;1.20;;;16.90;56.00;;;;;;5066570;28;20028;-86
2021/05/19 10:57:10;;;;;;;1.98;1.00;;;16.70;57.20;;;;;;5060953;28;20382;-87
2021/05/19 10:57:55;;;;;;;4.57;1.55;;;16.90;56.70;;;;;;5057884;28;20041;-86
2021/05/19 11:00:24;;;;;;;4.78;1.90;;;16.50;56.40;;;;;;5053102;28;20033;-85
2021/05/19 11:03:05;;;;;;;4.63;1.45;;;16.20;57.80;;;;;;5071429;28;20029;-86
2021/05/19 11:05:55;;;;;;;4.22;1.92;;;16.20;57.00;;;;;;5052220;28;20421;-85
2021/05/19 11:08:24;;;;;;;3.53;1.60;;;16.20;56.90;;;;;;5061870;28;20052;-86
2021/05/19 11:11:00;;;;;;;3.75;1.40;;;16.80;55.90;;;;;;5064126;28;20488;-86
2021/05/19 11:13:27;;;;;;;2.30;1.02;;;17.00;56.30;;;;;;5045626;28;20040;-86
2021/05/19 11:16:10;;;;;;;3.83;1.20;;;17.00;57.60;;;;;;5050780;28;20041;-82
2021/05/19 11:21:16;;;;;;;4.40;1.58;;;17.30;55.00;;;;;;5058597;28;20041;-84
2021/05/19 11:24:09;;;;;;;3.42;1.42;;;17.30;56.50;;;;;;5033142;28;20052;-82
2021/05/19 11:26:39;;;;;;;4.60;1.58;;;17.00;55.70;;;;;;5051763;28;20029;-85
2021/05/19 11:29:07;;;;;;;3.55;1.15;;;16.80;56.80;;;;;;5051547;28;20029;-82
2021/05/19 11:31:39;;;;;;;4.43;0.90;;;16.70;58.10;;;;;;5051403;28;20045;-81
2021/05/19 11:34:06;;;;;;;2.85;1.15;;;16.50;59.60;;;;;;5051556;28;20036;-84
2021/05/19 11:36:37;;;;;;;2.83;1.40;;;16.20;60.40;;;;;;5064480;28;20029;-87
2021/05/19 11:39:22;;;;;;;3.33;1.20;;;16.30;62.80;;;;;;5062703;28;20037;-85
2021/05/19 11:41:50;;;;;;;2.97;1.15;;;16.80;60.70;;;;;;5054405;28;20048;-83
2021/05/19 11:44:33;;;;;;;3.13;1.05;;;16.80;61.60;;;;;;5036937;28;20501;-83
2021/05/19 11:47:00;;;;;;;3.70;0.90;;;16.60;60.30;;;;;;5067334;28;20040;-84
2021/05/19 11:49:27;;;;;;;5.35;1.10;;;16.80;62.30;;;;;;5057300;28;20040;-84
2021/05/19 11:51:54;;;;;;;2.83;1.02;;;16.70;58.60;;;;;;5068895;28;20029;-84
2021/05/19 11:54:23;;;;;;;3.47;1.35;;;16.60;59.30;;;;;;5051560;28;20029;-85
2021/05/19 11:56:52;;;;;;;3.10;1.10;;;17.00;58.90;;;;;;5056338;28;20035;-83
2021/05/19 11:59:28;;;;;;;5.32;1.35;;;16.90;57.90;;;;;;5066686;28;20417;-83
2021/05/19 12:02:03;;;;;;;4.65;1.00;;;16.60;57.50;;;;;;5060989;28;20036;-82
2021/05/19 12:04:32;;;;;;;5.15;1.23;;;16.50;58.80;;;;;;5055090;28;20047;-84
2021/05/19 12:07:02;;;;;;;3.25;1.05;;;16.60;57.60;;;;;;5066406;28;20035;-84
2021/05/19 12:09:40;;;;;;;2.67;1.05;;;16.60;56.80;;;;;;5058844;28;20048;-84
2021/05/19 12:12:11;;;;;;;3.80;1.30;;;16.90;56.70;;;;;;5053968;28;20508;-85
2021/05/19 12:14:40;;;;;;;1.23;0.70;;;17.10;55.40;;;;;;5055720;28;20033;-84
2021/05/19 12:17:07;;;;;;;2.30;0.75;;;17.10;54.20;;;;;;5058117;28;20025;-84
2021/05/19 12:19:39;;;;;;;3.08;0.80;;;17.30;55.60;;;;;;5057596;28;20029;-84
2021/05/19 12:22:17;;;;;;;2.10;0.95;;;17.60;53.80;;;;;;5071342;28;20028;-85
2021/05/19 12:24:44;;;;;;;3.25;0.60;;;17.40;53.70;;;;;;5063894;28;20041;-84
2021/05/19 12:27:15;;;;;;;3.70;0.70;;;17.40;53.00;;;;;;5058160;28;20029;-84
2021/05/19 12:29:47;;;;;;;1.92;0.70;;;17.30;53.40;;;;;;5058620;28;20021;-84
2021/05/19 12:32:20;;;;;;;1.83;0.77;;;17.40;55.00;;;;;;5065701;28;20450;-83
2021/05/19 12:35:07;;;;;;;4.38;0.80;;;17.30;52.60;;;;;;5059731;28;20033;-83
2021/05/19 12:37:41;;;;;;;3.03;0.73;;;17.10;53.50;;;;;;5053456;28;20398;-84
2021/05/19 12:40:09;;;;;;;2.65;0.73;;;17.30;55.70;;;;;;5058583;28;20053;-84
2021/05/19 12:42:46;;;;;;;1.73;0.60;;;17.50;53.30;;;;;;5055249;28;20033;-83
2021/05/19 12:45:14;;;;;;;1.50;0.57;;;17.90;53.30;;;;;;5059300;28;20382;-86
2021/05/19 12:47:41;;;;;;;2.53;0.73;;;17.70;52.60;;;;;;5062986;28;20048;-85
2021/05/19 12:50:09;;;;;;;3.30;0.98;;;17.70;53.90;;;;;;5077133;28;20033;-86
2021/05/19 12:52:37;;;;;;;1.80;0.77;;;17.60;54.20;;;;;;5050716;28;20029;-85
2021/05/19 12:55:05;;;;;;;3.08;0.88;;;17.30;54.40;;;;;;5042984;28;20052;-84
2021/05/19 12:57:35;;;;;;;3.13;1.45;;;17.30;53.60;;;;;;5061289;28;20040;-84
2021/05/19 13:00:14;;;;;;;1.92;0.70;;;17.80;53.90;;;;;;5062069;28;20032;-83
2021/05/19 13:02:44;;;;;;;2.88;2.08;;;18.10;52.90;;;;;;5026645;28;20037;-83
2021/05/19 13:05:23;;;;;;;2.15;0.63;;;17.70;52.20;;;;;;5042154;28;20052;-83
2021/05/19 13:07:51;;;;;;;4.95;1.27;;;17.30;52.40;;;;;;5060513;28;20055;-83
2021/05/19 13:10:22;;;;;;;3.92;0.88;;;17.60;53.30;;;;;;5060678;28;20036;-87